Time;durP1;ratioP1;P1;durP2;ratioP2;P2;SDS_P1;SDS_P2;PMS_P1;PMS_P2;Temp;Humidity;BMP_temperature;BMP_pressure;BME280_temperature;BME280_humidity;BME280_pressure;Samples;Min_cycle;Max_cycle;Signal;HPM_P1;HPM_P2
2021/05/27 00:02:08;;;;;;;3.40;1.37;;;;;;;;;;5053025;28;20287;-77
2021/05/27 00:05:14;;;;;;;1.33;1.07;;;;;;;;;;5033494;28;20208;-76
2021/05/27 00:08:18;;;;;;;3.07;1.10;;;;;;;;;;5032672;28;20567;-76
2021/05/27 00:11:22;;;;;;;2.63;1.03;;;;;;;;;;5034546;28;20654;-76
2021/05/27 00:14:28;;;;;;;2.87;1.13;;;;;;;;;;5040857;28;20701;-76
2021/05/27 00:17:33;;;;;;;3.43;1.10;;;;;;;;;;5055388;28;20195;-76
2021/05/27 00:20:37;;;;;;;1.47;1.00;;;;;;;;;;5053275;28;20180;-76
2021/05/27 00:23:41;;;;;;;1.83;1.00;;;;;;;;;;5051953;28;20578;-76
2021/05/27 00:26:45;;;;;;;1.20;1.00;;;;;;;;;;5052691;28;20184;-76
2021/05/27 00:29:49;;;;;;;1.17;0.90;;;;;;;;;;5053494;28;20180;-76
2021/05/27 00:32:54;;;;;;;1.60;1.03;;;;;;;;;;5021060;28;20560;-77
2021/05/27 00:35:58;;;;;;;1.00;0.90;;;;;;;;;;5032460;28;20173;-76
2021/05/27 00:39:04;;;;;;;3.20;1.10;;;;;;;;;;5032938;28;20177;-76
2021/05/27 00:42:08;;;;;;;1.63;1.30;;;;;;;;;;5048776;28;20184;-76
2021/05/27 00:45:15;;;;;;;3.43;0.93;;;;;;;;;;5052156;28;20207;-76
2021/05/27 00:51:44;;;;;;;1.20;1.10;;;;;;;;;;5053240;28;20184;-76
2021/05/27 00:54:50;;;;;;;1.27;1.03;;;;;;;;;;5040378;28;20196;-76
2021/05/27 00:57:55;;;;;;;1.83;1.10;;;;;;;;;;5040614;28;20188;-76
2021/05/27 01:01:01;;;;;;;1.80;1.20;;;;;;;;;;5020889;28;20177;-76
2021/05/27 01:04:05;;;;;;;2.73;1.10;;;;;;;;;;5028397;28;20220;-76
2021/05/27 01:07:13;;;;;;;2.80;1.20;;;;;;;;;;5056412;28;20550;-76
2021/05/27 01:10:18;;;;;;;1.57;1.20;;;;;;;;;;5044214;28;20196;-76
2021/05/27 01:13:24;;;;;;;1.43;1.10;;;;;;;;;;5043952;28;20216;-77
2021/05/27 01:16:29;;;;;;;3.37;1.27;;;;;;;;;;5055791;28;20176;-76
2021/05/27 01:19:33;;;;;;;1.10;1.00;;;;;;;;;;5056086;28;20654;-76
2021/05/27 01:22:39;;;;;;;2.37;1.20;;;;;;;;;;5037774;28;20212;-76
2021/05/27 01:26:02;;;;;;;5.60;1.20;;;;;;;;;;5043395;28;20211;-77
2021/05/27 01:29:07;;;;;;;2.23;1.30;;;;;;;;;;5044032;28;20181;-76
2021/05/27 01:32:11;;;;;;;1.63;1.30;;;;;;;;;;5056239;28;20176;-76
2021/05/27 01:35:18;;;;;;;7.40;3.30;;;;;;;;;;5056008;28;20546;-76
2021/05/27 01:38:25;;;;;;;1.43;1.10;;;;;;;;;;5054936;28;20557;-76
2021/05/27 01:41:29;;;;;;;2.33;1.27;;;;;;;;;;5055749;28;20192;-76
2021/05/27 01:44:35;;;;;;;3.37;1.50;;;;;;;;;;5035024;28;20188;-76
2021/05/27 01:47:40;;;;;;;3.10;1.60;;;;;;;;;;5035802;28;20189;-75
2021/05/27 01:50:47;;;;;;;1.57;1.30;;;;;;;;;;5039752;28;20188;-75
2021/05/27 01:53:52;;;;;;;2.50;1.57;;;;;;;;;;5043419;28;20566;-76
2021/05/27 01:56:56;;;;;;;1.67;1.30;;;;;;;;;;5024085;28;20175;-75
2021/05/27 02:00:04;;;;;;;2.13;1.43;;;;;;;;;;5043330;28;20192;-76
2021/05/27 02:03:13;;;;;;;1.83;1.50;;;;;;;;;;5043138;28;20220;-76
2021/05/27 02:06:21;;;;;;;1.30;1.20;;;;;;;;;;5032075;28;20678;-76
2021/05/27 02:09:27;;;;;;;1.50;1.40;;;;;;;;;;5055541;28;20188;-76
2021/05/27 02:12:37;;;;;;;2.17;1.40;;;;;;;;;;5032865;28;20220;-76
2021/05/27 02:15:42;;;;;;;3.77;1.13;;;;;;;;;;5053736;28;20184;-76
2021/05/27 02:18:46;;;;;;;1.70;1.43;;;;;;;;;;5042947;28;20535;-76
2021/05/27 02:21:51;;;;;;;1.77;1.30;;;;;;;;;;5055662;28;20176;-76
2021/05/27 02:25:03;;;;;;;3.83;1.60;;;;;;;;;;5023187;28;20176;-76
2021/05/27 02:28:08;;;;;;;5.13;1.43;;;;;;;;;;5052121;28;20188;-76
2021/05/27 02:31:13;;;;;;;4.13;1.20;;;;;;;;;;5035248;28;20196;-76
2021/05/27 02:34:23;;;;;;;2.43;1.37;;;;;;;;;;5040063;28;20619;-76
2021/05/27 02:37:30;;;;;;;3.10;1.23;;;;;;;;;;5054760;28;20195;-75
2021/05/27 02:40:35;;;;;;;1.60;1.30;;;;;;;;;;5042467;28;20679;-76
2021/05/27 02:43:41;;;;;;;1.50;1.13;;;;;;;;;;5034683;28;20228;-76
2021/05/27 02:46:48;;;;;;;0.90;0.80;;;;;;;;;;5052439;28;20208;-76
2021/05/27 02:49:54;;;;;;;2.20;1.30;;;;;;;;;;5042048;28;20188;-76
2021/05/27 02:52:58;;;;;;;3.60;1.23;;;;;;;;;;5042310;28;20219;-76
2021/05/27 02:56:07;;;;;;;1.60;1.20;;;;;;;;;;5041903;28;20651;-76
2021/05/27 02:59:18;;;;;;;3.57;1.23;;;;;;;;;;5033793;28;20555;-76
2021/05/27 03:02:23;;;;;;;1.93;1.30;;;;;;;;;;5035936;28;20686;-76
2021/05/27 03:05:31;;;;;;;1.73;1.10;;;;;;;;;;5055119;28;20228;-75
2021/05/27 03:08:41;;;;;;;2.53;1.40;;;;;;;;;;5053954;28;20180;-75
2021/05/27 03:11:47;;;;;;;2.60;1.30;;;;;;;;;;5042816;28;20181;-76
2021/05/27 03:14:52;;;;;;;5.63;1.30;;;;;;;;;;5053142;28;20191;-76
2021/05/27 03:18:05;;;;;;;2.27;1.17;;;;;;;;;;5022123;28;20189;-75
2021/05/27 03:21:10;;;;;;;3.00;1.27;;;;;;;;;;5048680;28;20192;-76
2021/05/27 03:24:16;;;;;;;5.70;1.30;;;;;;;;;;5054630;28;20216;-75
2021/05/27 03:27:20;;;;;;;1.63;1.40;;;;;;;;;;5021671;28;20204;-75
2021/05/27 03:30:24;;;;;;;2.97;1.50;;;;;;;;;;5034383;28;20539;-76
2021/05/27 03:33:28;;;;;;;1.57;1.47;;;;;;;;;;5054223;28;20219;-76
2021/05/27 03:36:33;;;;;;;2.37;1.70;;;;;;;;;;5058607;28;20183;-75
2021/05/27 03:39:37;;;;;;;3.87;1.50;;;;;;;;;;5062650;28;20183;-75
2021/05/27 03:42:45;;;;;;;1.87;1.37;;;;;;;;;;5061944;28;20215;-76
2021/05/27 03:45:50;;;;;;;2.80;1.60;;;;;;;;;;5053791;28;20212;-76
2021/05/27 03:48:56;;;;;;;4.30;1.60;;;;;;;;;;5042966;28;20187;-76
2021/05/27 03:52:00;;;;;;;2.53;1.60;;;;;;;;;;5052588;28;20200;-76
2021/05/27 03:55:07;;;;;;;2.13;1.87;;;;;;;;;;5111682;22;20230;-85
2021/05/27 04:01:35;;;;;;;2.97;2.23;;;;;;;;;;5071885;28;20669;-86
2021/05/27 04:08:28;;;;;;;2.73;1.60;;;;;;;;;;5053470;28;20540;-85
2021/05/27 04:11:32;;;;;;;2.27;1.87;;;;;;;;;;5053673;28;20184;-85
2021/05/27 04:14:36;;;;;;;3.23;1.87;;;;;;;;;;5041806;28;20223;-85
2021/05/27 04:17:41;;;;;;;2.77;1.90;;;;;;;;;;5062345;28;20534;-85
2021/05/27 04:20:46;;;;;;;5.33;1.90;;;;;;;;;;5045043;28;20188;-85
2021/05/27 04:23:51;;;;;;;2.37;1.70;;;;;;;;;;5030213;28;20219;-85
2021/05/27 04:26:55;;;;;;;3.70;1.80;;;;;;;;;;5041841;28;20683;-85
2021/05/27 04:30:12;;;;;;;4.80;1.90;;;;;;;;;;5069476;28;20567;-85
2021/05/27 04:33:16;;;;;;;2.40;1.67;;;;;;;;;;5073352;28;20179;-84
2021/05/27 04:36:21;;;;;;;2.13;1.47;;;;;;;;;;5050355;28;20175;-84
2021/05/27 04:39:25;;;;;;;8.63;1.70;;;;;;;;;;5063755;28;20635;-85
2021/05/27 04:42:30;;;;;;;6.43;1.90;;;;;;;;;;5066505;28;20175;-84
2021/05/27 04:45:34;;;;;;;1.97;1.50;;;;;;;;;;5050162;28;20207;-85
2021/05/27 04:48:39;;;;;;;5.80;1.67;;;;;;;;;;5057020;28;20184;-84
2021/05/27 04:51:43;;;;;;;2.20;1.73;;;;;;;;;;5056692;28;20176;-85
2021/05/27 04:54:47;;;;;;;1.93;1.73;;;;;;;;;;5033845;28;20227;-85
2021/05/27 04:57:51;;;;;;;2.20;1.50;;;;;;;;;;5034197;28;20188;-85
2021/05/27 05:00:56;;;;;;;1.83;1.53;;;;;;;;;;5045474;28;20184;-85
2021/05/27 05:04:01;;;;;;;4.40;1.80;;;;;;;;;;5056241;28;20219;-85
2021/05/27 05:07:05;;;;;;;3.13;1.57;;;;;;;;;;5046668;28;20212;-85
2021/05/27 05:10:13;;;;;;;1.90;1.60;;;;;;;;;;5064668;28;20537;-85
2021/05/27 05:13:17;;;;;;;2.30;2.10;;;;;;;;;;5044002;28;20180;-85
2021/05/27 05:16:21;;;;;;;4.80;2.07;;;;;;;;;;5065658;28;20642;-85
2021/05/27 05:19:26;;;;;;;3.10;1.90;;;;;;;;;;5065101;28;20191;-85
2021/05/27 05:22:30;;;;;;;4.03;1.70;;;;;;;;;;5047384;28;20188;-85
2021/05/27 05:25:36;;;;;;;2.03;1.67;;;;;;;;;;5056355;28;20216;-85
2021/05/27 05:28:40;;;;;;;1.63;1.40;;;;;;;;;;5033543;28;20172;-85
2021/05/27 05:31:44;;;;;;;2.03;1.77;;;;;;;;;;5056354;28;20677;-85
2021/05/27 05:34:48;;;;;;;2.27;1.53;;;;;;;;;;5064407;28;20219;-85
2021/05/27 05:37:53;;;;;;;2.97;1.87;;;;;;;;;;5053530;28;20176;-85
2021/05/27 05:40:57;;;;;;;2.20;1.73;;;;;;;;;;5076233;28;20184;-85
2021/05/27 05:44:02;;;;;;;4.30;1.70;;;;;;;;;;5074878;28;20585;-85
2021/05/27 05:47:06;;;;;;;3.33;1.53;;;;;;;;;;5042799;28;20220;-85
2021/05/27 05:50:11;;;;;;;5.83;4.43;;;;;;;;;;5048568;28;20188;-85
2021/05/27 05:53:24;;;;;;;5.63;4.57;;;;;;;;;;5077305;28;20175;-85
2021/05/27 05:56:28;;;;;;;3.97;2.53;;;;;;;;;;5064694;28;20175;-85
2021/05/27 05:59:33;;;;;;;2.27;2.00;;;;;;;;;;5052678;28;20180;-85
2021/05/27 06:02:38;;;;;;;2.53;1.60;;;;;;;;;;5056502;28;20192;-85
2021/05/27 06:05:43;;;;;;;2.57;1.60;;;;;;;;;;5032717;28;20204;-85
2021/05/27 06:09:05;;;;;;;2.63;1.77;;;;;;;;;;5046562;28;20192;-86
2021/05/27 06:12:10;;;;;;;2.30;1.97;;;;;;;;;;5032426;28;20199;-86
2021/05/27 06:15:19;;;;;;;3.00;1.57;;;;;;;;;;5043704;28;20216;-85
2021/05/27 06:18:24;;;;;;;5.17;2.20;;;;;;;;;;5043906;28;20188;-86
2021/05/27 06:21:58;;;;;;;3.60;1.50;;;;;;;;;;5047648;28;20184;-86
2021/05/27 06:25:22;;;;;;;14.60;7.03;;;;;;;;;;5054868;28;20690;-87
2021/05/27 06:28:26;;;;;;;11.40;8.70;;;;;;;;;;5055495;28;20212;-85
2021/05/27 06:31:31;;;;;;;23.83;12.80;;;;;;;;;;5054667;28;20181;-85
2021/05/27 06:34:36;;;;;;;16.57;10.50;;;;;;;;;;5043403;28;20212;-85
2021/05/27 06:37:42;;;;;;;27.87;14.73;;;;;;;;;;5043596;28;20200;-85
2021/05/27 06:40:46;;;;;;;14.13;9.63;;;;;;;;;;5050292;28;20179;-85
2021/05/27 06:43:50;;;;;;;9.90;7.57;;;;;;;;;;5043115;28;20220;-85
2021/05/27 06:46:54;;;;;;;36.23;22.77;;;;;;;;;;5042941;28;20208;-85
2021/05/27 06:49:58;;;;;;;103.23;53.03;;;;;;;;;;5054965;28;20180;-85
2021/05/27 06:53:08;;;;;;;75.50;42.50;;;;;;;;;;5031432;28;20222;-85
2021/05/27 06:56:13;;;;;;;29.50;19.97;;;;;;;;;;5032122;28;20184;-85
2021/05/27 06:59:17;;;;;;;14.10;11.33;;;;;;;;;;5031765;28;20180;-85
2021/05/27 07:02:21;;;;;;;5.00;4.00;;;;;;;;;;5054295;28;20180;-85
2021/05/27 07:05:27;;;;;;;3.70;3.10;;;;;;;;;;5042551;28;20215;-85
2021/05/27 07:08:32;;;;;;;5.10;3.43;;;;;;;;;;5031764;28;20224;-85
2021/05/27 07:11:37;;;;;;;3.93;2.80;;;;;;;;;;5053894;28;20176;-85
2021/05/27 07:14:41;;;;;;;2.90;1.87;;;;;;;;;;5031768;28;20212;-85
2021/05/27 07:17:45;;;;;;;2.80;2.20;;;;;;;;;;5042988;28;20172;-85
2021/05/27 07:20:49;;;;;;;5.90;4.37;;;;;;;;;;5042516;28;20176;-85
2021/05/27 07:23:54;;;;;;;7.00;4.73;;;;;;;;;;5053716;28;20216;-85
2021/05/27 07:26:59;;;;;;;4.83;2.77;;;;;;;;;;5042237;28;20212;-85
2021/05/27 07:30:47;;;;;;;3.30;2.70;;;;;;;;;;5042475;28;20184;-85
2021/05/27 07:33:51;;;;;;;2.57;1.67;;;;;;;;;;5042399;28;20216;-85
2021/05/27 07:36:56;;;;;;;3.83;1.60;;;;;;;;;;5041876;28;20188;-85
2021/05/27 07:40:00;;;;;;;3.63;1.70;;;;;;;;;;5045097;28;20203;-85
2021/05/27 07:43:04;;;;;;;1.73;1.60;;;;;;;;;;5073497;28;20179;-85
2021/05/27 07:46:08;;;;;;;2.57;1.53;;;;;;;;;;5050652;28;20179;-85
2021/05/27 07:49:12;;;;;;;2.07;1.50;;;;;;;;;;5062244;28;20175;-85
2021/05/27 07:52:17;;;;;;;2.67;1.60;;;;;;;;;;5073222;28;20203;-85
2021/05/27 07:55:23;;;;;;;4.40;2.63;;;;;;;;;;5059485;28;20228;-85
2021/05/27 07:58:27;;;;;;;2.63;1.70;;;;;;;;;;5030585;28;20168;-85
2021/05/27 08:01:31;;;;;;;3.57;2.13;;;;;;;;;;5044649;28;20195;-85
2021/05/27 08:04:36;;;;;;;2.43;1.70;;;;;;;;;;5048477;28;20218;-85
2021/05/27 08:07:41;;;;;;;4.93;3.20;;;;;;;;;;5061965;28;20203;-85
2021/05/27 08:10:46;;;;;;;2.00;1.23;;;;;;;;;;5043525;28;20188;-85
2021/05/27 08:13:50;;;;;;;7.03;2.07;;;;;;;;;;5040734;28;20219;-85
2021/05/27 08:16:54;;;;;;;3.03;1.67;;;;;;;;;;5030117;28;20171;-85
2021/05/27 08:19:59;;;;;;;2.30;1.43;;;;;;;;;;5040118;28;20183;-85
2021/05/27 08:23:03;;;;;;;2.20;1.53;;;;;;;;;;5044360;28;20187;-85
2021/05/27 08:26:07;;;;;;;2.20;1.10;;;;;;;;;;5053168;28;20183;-85
2021/05/27 08:29:12;;;;;;;1.47;1.03;;;;;;;;;;5042392;28;20701;-85
2021/05/27 08:32:16;;;;;;;1.23;1.00;;;;;;;;;;5049563;28;20191;-85
2021/05/27 08:35:20;;;;;;;4.17;1.40;;;;;;;;;;5063207;28;20211;-85
2021/05/27 08:38:24;;;;;;;1.53;1.20;;;;;;;;;;5050829;28;20511;-85
2021/05/27 08:41:29;;;;;;;2.83;1.50;;;;;;;;;;5060957;28;20203;-85
2021/05/27 08:44:36;;;;;;;2.03;1.40;;;;;;;;;;5042585;28;20223;-85
2021/05/27 08:47:40;;;;;;;1.80;1.20;;;;;;;;;;5041512;28;20212;-85
2021/05/27 08:50:46;;;;;;;2.87;1.30;;;;;;;;;;5030369;28;20520;-85
2021/05/27 08:53:50;;;;;;;3.07;1.07;;;;;;;;;;5052694;28;20227;-85
2021/05/27 08:56:54;;;;;;;3.33;1.53;;;;;;;;;;5058559;28;20535;-85
2021/05/27 08:59:59;;;;;;;2.93;1.37;;;;;;;;;;5037761;28;20188;-85
2021/05/27 09:03:05;;;;;;;2.43;1.83;;;;;;;;;;5041219;28;20180;-85
2021/05/27 09:06:11;;;;;;;1.57;1.30;;;;;;;;;;5046588;28;20188;-85
2021/05/27 09:09:15;;;;;;;2.40;1.50;;;;;;;;;;5060686;28;20670;-85
2021/05/27 09:12:26;;;;;;;1.90;1.60;;;;;;;;;;5048070;28;20199;-85
2021/05/27 09:15:30;;;;;;;5.90;1.20;;;;;;;;;;5059603;28;20219;-85
2021/05/27 09:18:37;;;;;;;1.97;1.10;;;;;;;;;;5041819;28;20196;-85
2021/05/27 09:21:42;;;;;;;5.87;1.17;;;;;;;;;;5040808;28;20200;-85
2021/05/27 09:24:47;;;;;;;1.80;1.07;;;;;;;;;;5052513;28;20224;-85
2021/05/27 09:27:52;;;;;;;2.03;1.27;;;;;;;;;;5056239;28;20216;-85
2021/05/27 09:31:01;;;;;;;2.43;0.97;;;;;;;;;;5051610;28;20188;-85
2021/05/27 09:34:06;;;;;;;2.17;0.90;;;;;;;;;;5033710;28;20224;-85
2021/05/27 09:37:21;;;;;;;2.53;0.90;;;;;;;;;;5060443;28;20641;-85
2021/05/27 09:40:46;;;;;;;1.60;0.73;;;;;;;;;;5049054;28;20196;-85
2021/05/27 09:43:55;;;;;;;1.90;1.10;;;;;;;;;;5044462;28;20219;-85
2021/05/27 09:46:59;;;;;;;1.80;1.07;;;;;;;;;;5086165;28;20175;-85
2021/05/27 09:50:06;;;;;;;2.00;0.90;;;;;;;;;;5054167;28;20187;-86
2021/05/27 09:53:16;;;;;;;3.70;1.00;;;;;;;;;;5056047;28;20200;-85
2021/05/27 09:56:37;;;;;;;2.23;1.00;;;;;;;;;;5098528;23;20723;-88
2021/05/27 09:59:42;;;;;;;1.83;0.80;;;;;;;;;;5087990;27;20178;-88
2021/05/27 10:02:46;;;;;;;1.67;1.10;;;;;;;;;;5101398;27;20182;-88
2021/05/27 10:05:51;;;;;;;1.63;0.80;;;;;;;;;;5112342;27;20213;-87
2021/05/27 10:08:56;;;;;;;2.70;1.00;;;;;;;;;;5084409;28;20206;-88
2021/05/27 10:12:01;;;;;;;2.53;1.03;;;;;;;;;;5072854;28;20202;-88
2021/05/27 10:15:06;;;;;;;1.77;0.90;;;;;;;;;;5080660;28;20182;-88
2021/05/27 10:18:18;;;;;;;4.27;0.90;;;;;;;;;;5087278;28;20170;-88
2021/05/27 10:21:24;;;;;;;1.33;0.90;;;;;;;;;;5104376;28;20178;-89
2021/05/27 10:24:28;;;;;;;1.93;0.83;;;;;;;;;;5080982;28;20194;-89
2021/05/27 10:27:33;;;;;;;1.77;0.90;;;;;;;;;;5080659;28;20517;-89
2021/05/27 10:30:40;;;;;;;1.20;0.70;;;;;;;;;;5075066;28;20186;-88
2021/05/27 10:33:44;;;;;;;1.90;1.00;;;;;;;;;;5103613;28;20194;-89
2021/05/27 10:36:48;;;;;;;1.97;1.00;;;;;;;;;;5077796;28;20221;-87
2021/05/27 10:39:52;;;;;;;1.63;0.83;;;;;;;;;;5101378;28;20510;-86
2021/05/27 10:42:57;;;;;;;2.50;0.80;;;;;;;;;;5070318;28;20636;-87
2021/05/27 10:46:01;;;;;;;8.33;1.00;;;;;;;;;;5076544;28;20213;-87
2021/05/27 10:49:05;;;;;;;1.57;0.87;;;;;;;;;;5099763;28;20206;-87
2021/05/27 10:52:30;;;;;;;1.97;0.90;;;;;;;;;;5087835;28;20198;-87
2021/05/27 10:55:52;;;;;;;3.30;0.93;;;;;;;;;;5075615;28;20221;-87
2021/05/27 10:58:57;;;;;;;7.87;1.00;;;;;;;;;;5076687;28;20182;-87
2021/05/27 11:02:03;;;;;;;3.80;1.10;;;;;;;;;;5099420;28;20178;-87
2021/05/27 11:05:14;;;;;;;2.17;1.10;;;;;;;;;;5091838;28;20218;-87
2021/05/27 11:08:20;;;;;;;1.13;0.80;;;;;;;;;;5103007;28;20218;-87
2021/05/27 11:11:35;;;;;;;1.00;0.70;;;;;;;;;;5079804;28;20194;-87
2021/05/27 11:14:41;;;;;;;1.90;1.07;;;;;;;;;;5091967;28;20186;-87
2021/05/27 11:18:00;;;;;;;2.60;1.03;;;;;;;;;;5103193;28;20179;-87
2021/05/27 11:21:34;;;;;;;4.10;0.90;;;;;;;;;;5091409;28;20553;-87
2021/05/27 11:24:40;;;;;;;1.97;0.87;;;;;;;;;;5078887;28;20174;-87
2021/05/27 11:28:08;;;;;;;20.83;9.40;;;;;;;;;;5079859;28;20194;-87
2021/05/27 11:31:12;;;;;;;2.40;0.90;;;;;;;;;;5102523;28;20189;-87
2021/05/27 11:34:16;;;;;;;2.33;0.83;;;;;;;;;;5080021;28;20185;-87
2021/05/27 11:37:20;;;;;;;2.17;0.67;;;;;;;;;;5079753;28;20170;-87
2021/05/27 11:40:30;;;;;;;2.17;0.80;;;;;;;;;;5090948;28;20174;-87
2021/05/27 11:43:37;;;;;;;1.83;0.80;;;;;;;;;;5091532;28;20182;-87
2021/05/27 11:46:42;;;;;;;1.60;0.80;;;;;;;;;;5077507;28;20218;-87
2021/05/27 11:50:04;;;;;;;2.17;0.70;;;;;;;;;;5089924;28;20552;-87
2021/05/27 11:53:09;;;;;;;2.30;1.20;;;;;;;;;;5079143;28;20194;-87
2021/05/27 11:56:27;;;;;;;1.27;0.80;;;;;;;;;;5094087;28;20225;-87
2021/05/27 11:59:32;;;;;;;2.73;0.90;;;;;;;;;;5102997;28;20194;-87
2021/05/27 12:02:44;;;;;;;2.13;1.03;;;;;;;;;;5091125;28;20190;-87
2021/05/27 12:05:48;;;;;;;3.10;0.70;;;;;;;;;;5069795;28;20226;-86
2021/05/27 12:08:53;;;;;;;1.33;0.80;;;;;;;;;;5054115;28;20236;-87
2021/05/27 12:12:10;;;;;;;2.67;0.70;;;;;;;;;;5044917;28;20200;-86
2021/05/27 12:15:15;;;;;;;1.47;0.70;;;;;;;;;;5011408;28;20217;-85
2021/05/27 12:18:20;;;;;;;1.30;0.90;;;;;;;;;;5024610;28;20196;-85
2021/05/27 12:21:25;;;;;;;4.87;0.93;;;;;;;;;;5012518;28;20200;-86
2021/05/27 12:24:29;;;;;;;1.23;0.70;;;;;;;;;;5024003;28;20173;-86
2021/05/27 12:27:45;;;;;;;2.90;0.60;;;;;;;;;;5012651;28;20180;-86
2021/05/27 12:30:52;;;;;;;3.07;0.90;;;;;;;;;;5018449;28;20201;-85
2021/05/27 12:34:00;;;;;;;1.27;0.80;;;;;;;;;;5044933;28;20176;-85
2021/05/27 12:37:06;;;;;;;1.00;0.80;;;;;;;;;;5027518;28;20221;-87
2021/05/27 12:40:10;;;;;;;2.87;1.00;;;;;;;;;;5022998;28;20196;-86
2021/05/27 12:43:20;;;;;;;4.30;1.03;;;;;;;;;;5024423;28;20189;-86
2021/05/27 12:46:32;;;;;;;1.40;0.77;;;;;;;;;;5033560;28;20702;-86
2021/05/27 12:49:36;;;;;;;1.57;0.90;;;;;;;;;;5034008;28;20552;-86
2021/05/27 12:52:42;;;;;;;3.73;0.90;;;;;;;;;;5032734;28;20188;-86
2021/05/27 12:55:46;;;;;;;1.30;0.77;;;;;;;;;;5056813;28;20231;-86
2021/05/27 12:58:52;;;;;;;1.53;0.80;;;;;;;;;;5053339;28;20184;-86
2021/05/27 13:01:58;;;;;;;1.67;0.77;;;;;;;;;;5034064;28;20523;-85
2021/05/27 13:05:17;;;;;;;1.13;0.70;;;;;;;;;;5056911;28;20180;-86
2021/05/27 13:08:30;;;;;;;23.37;19.27;;;;;;;;;;5036717;28;20211;-86
2021/05/27 13:11:41;;;;;;;7.57;4.93;;;;;;;;;;5014383;28;20651;-86
2021/05/27 13:15:00;;;;;;;2.30;1.40;;;;;;;;;;5014933;28;20180;-86
2021/05/27 13:18:06;;;;;;;1.67;1.20;;;;;;;;;;5036406;28;20529;-85
2021/05/27 13:21:10;;;;;;;3.33;0.90;;;;;;;;;;5036629;28;20196;-86
2021/05/27 13:24:30;;;;;;;2.23;1.00;;;;;;;;;;5024867;28;20200;-86
2021/05/27 13:27:44;;;;;;;2.87;1.00;;;;;;;;;;5024956;28;20185;-85
2021/05/27 13:30:50;;;;;;;2.07;1.00;;;;;;;;;;5024639;28;20220;-86
2021/05/27 13:33:57;;;;;;;1.60;1.07;;;;;;;;;;5024943;28;20181;-86
2021/05/27 13:37:03;;;;;;;1.40;0.87;;;;;;;;;;5013521;28;20216;-85
2021/05/27 13:40:19;;;;;;;2.93;1.37;;;;;;;;;;5032852;28;20225;-86
2021/05/27 13:43:34;;;;;;;3.57;1.00;;;;;;;;;;5044536;28;20192;-83
2021/05/27 13:46:51;;;;;;;1.77;1.43;;;;;;;;;;5044908;28;20220;-82
2021/05/27 13:49:56;;;;;;;2.33;1.00;;;;;;;;;;5044893;28;20208;-85
2021/05/27 13:53:05;;;;;;;1.57;1.07;;;;;;;;;;5044655;28;20184;-84
2021/05/27 13:56:18;;;;;;;2.20;0.83;;;;;;;;;;5033099;28;20220;-83
2021/05/27 13:59:22;;;;;;;1.77;1.00;;;;;;;;;;5053603;28;20176;-82
2021/05/27 14:02:29;;;;;;;0.83;0.83;;;;;;;;;;5042426;28;20181;-81
2021/05/27 14:05:33;;;;;;;2.70;1.00;;;;;;;;;;5053583;28;20690;-82
2021/05/27 14:08:39;;;;;;;1.30;0.87;;;;;;;;;;5053760;28;20176;-81
2021/05/27 14:11:43;;;;;;;5.20;1.00;;;;;;;;;;5052203;28;20184;-83
2021/05/27 14:14:48;;;;;;;1.33;0.90;;;;;;;;;;5041850;28;20176;-82
2021/05/27 14:17:52;;;;;;;1.40;0.87;;;;;;;;;;5041911;28;20623;-82
2021/05/27 14:20:57;;;;;;;1.27;0.90;;;;;;;;;;5041600;28;20180;-82
2021/05/27 14:24:02;;;;;;;2.63;0.70;;;;;;;;;;5052905;28;20176;-82
2021/05/27 14:27:08;;;;;;;1.37;0.73;;;;;;;;;;5041800;28;20215;-82
2021/05/27 14:30:13;;;;;;;2.30;1.00;;;;;;;;;;5041934;28;20204;-82
2021/05/27 14:33:17;;;;;;;3.60;0.77;;;;;;;;;;5041556;28;20176;-82
2021/05/27 14:36:24;;;;;;;3.07;0.80;;;;;;;;;;5064372;28;20212;-82
2021/05/27 14:39:28;;;;;;;1.00;0.77;;;;;;;;;;5053727;28;20528;-82
2021/05/27 14:42:32;;;;;;;1.70;0.90;;;;;;;;;;5030211;28;20176;-83
2021/05/27 14:45:36;;;;;;;0.60;0.60;;;;;;;;;;5053007;28;20212;-83
2021/05/27 14:48:40;;;;;;;2.00;0.80;;;;;;;;;;5030173;28;20180;-81
2021/05/27 14:51:45;;;;;;;1.87;0.80;;;;;;;;;;5041385;28;20180;-82
2021/05/27 14:54:49;;;;;;;1.73;1.20;;;;;;;;;;5042140;28;20184;-82
2021/05/27 14:57:53;;;;;;;4.00;1.30;;;;;;;;;;5054927;28;20180;-83
2021/05/27 15:00:58;;;;;;;2.47;1.00;;;;;;;;;;5055844;28;20172;-80
2021/05/27 15:04:03;;;;;;;2.37;0.90;;;;;;;;;;5054323;28;20188;-80
2021/05/27 15:07:07;;;;;;;3.17;1.03;;;;;;;;;;5042724;28;20215;-80
2021/05/27 15:10:12;;;;;;;1.80;0.97;;;;;;;;;;5032019;28;20559;-80
2021/05/27 15:13:17;;;;;;;3.20;1.30;;;;;;;;;;5055622;28;20172;-80
2021/05/27 15:16:21;;;;;;;2.17;1.13;;;;;;;;;;5054347;28;20220;-80
2021/05/27 15:19:25;;;;;;;6.33;1.20;;;;;;;;;;5054376;28;20180;-80
2021/05/27 15:22:29;;;;;;;2.87;1.20;;;;;;;;;;5053804;28;20662;-80
2021/05/27 15:25:34;;;;;;;3.77;1.00;;;;;;;;;;5054667;28;20216;-81
2021/05/27 15:28:38;;;;;;;1.77;1.10;;;;;;;;;;5042603;28;20184;-85
2021/05/27 15:31:43;;;;;;;1.50;1.10;;;;;;;;;;5031553;28;20188;-85
2021/05/27 15:34:51;;;;;;;2.90;1.10;;;;;;;;;;5054181;28;20511;-85
2021/05/27 15:37:56;;;;;;;2.27;1.07;;;;;;;;;;5051813;28;20208;-85
2021/05/27 15:41:00;;;;;;;3.37;1.30;;;;;;;;;;5028046;28;20207;-85
2021/05/27 15:44:05;;;;;;;1.47;0.87;;;;;;;;;;5042185;28;20180;-80
2021/05/27 15:47:10;;;;;;;1.53;1.13;;;;;;;;;;5041470;28;20698;-82
2021/05/27 15:50:15;;;;;;;1.23;0.90;;;;;;;;;;5042732;28;20223;-80
2021/05/27 15:53:19;;;;;;;2.50;1.00;;;;;;;;;;5046678;28;20184;-80
2021/05/27 15:56:23;;;;;;;1.87;1.23;;;;;;;;;;5049284;28;20231;-80
2021/05/27 15:59:28;;;;;;;1.00;0.90;;;;;;;;;;5048977;28;20192;-84
2021/05/27 16:02:33;;;;;;;1.97;0.90;;;;;;;;;;5032176;28;20541;-83
2021/05/27 16:05:38;;;;;;;1.13;0.90;;;;;;;;;;5047452;28;20717;-83
2021/05/27 16:08:42;;;;;;;1.20;1.00;;;;;;;;;;5053755;28;20191;-84
2021/05/27 16:11:46;;;;;;;1.10;0.80;;;;;;;;;;5058287;28;20188;-84
2021/05/27 16:14:51;;;;;;;2.70;1.10;;;;;;;;;;5029482;28;20204;-83
2021/05/27 16:17:56;;;;;;;1.27;0.80;;;;;;;;;;5008073;28;20276;-83
2021/05/27 16:21:00;;;;;;;2.13;1.93;;;;;;;;;;5046737;28;20185;-84
2021/05/27 16:24:05;;;;;;;2.43;1.60;;;;;;;;;;5039836;28;20200;-85
2021/05/27 16:27:09;;;;;;;2.27;1.70;;;;;;;;;;5039486;28;20212;-84
2021/05/27 16:30:14;;;;;;;2.93;1.20;;;;;;;;;;5039431;28;20215;-84
2021/05/27 16:33:20;;;;;;;1.30;1.00;;;;;;;;;;5050687;28;20185;-84
2021/05/27 16:39:48;;;;;;;1.10;1.00;;;;;;;;;;5052600;28;20192;-84
2021/05/27 16:42:52;;;;;;;3.40;1.60;;;;;;;;;;5028828;28;20192;-84
2021/05/27 16:45:58;;;;;;;1.90;1.70;;;;;;;;;;5028029;28;20220;-84
2021/05/27 16:49:04;;;;;;;2.97;1.20;;;;;;;;;;5051476;28;20200;-84
2021/05/27 16:52:10;;;;;;;2.13;1.90;;;;;;;;;;5040515;28;20189;-84
2021/05/27 16:55:15;;;;;;;1.30;1.13;;;;;;;;;;5039860;28;20231;-84
2021/05/27 16:58:19;;;;;;;1.73;1.40;;;;;;;;;;5031323;28;20192;-84
2021/05/27 17:01:24;;;;;;;1.87;1.10;;;;;;;;;;5050640;28;20180;-84
2021/05/27 17:04:28;;;;;;;1.43;1.23;;;;;;;;;;5050848;28;20196;-84
2021/05/27 17:07:33;;;;;;;1.77;1.40;;;;;;;;;;5051081;28;20200;-84
2021/05/27 17:10:37;;;;;;;4.27;2.97;;;;;;;;;;5044261;28;20220;-84
2021/05/27 17:13:42;;;;;;;5.73;2.00;;;;;;;;;;5019797;28;20181;-85
2021/05/27 17:16:48;;;;;;;1.67;1.57;;;;;;;;;;5042708;28;20212;-85
2021/05/27 17:19:53;;;;;;;2.10;1.17;;;;;;;;;;5041501;28;20185;-85
2021/05/27 17:22:59;;;;;;;2.30;1.37;;;;;;;;;;5036779;28;20203;-87
2021/05/27 17:26:06;;;;;;;1.73;1.17;;;;;;;;;;5065037;28;20219;-86
2021/05/27 17:29:11;;;;;;;1.33;1.00;;;;;;;;;;5031918;28;20200;-85
2021/05/27 17:32:25;;;;;;;2.50;1.10;;;;;;;;;;5053159;28;20185;-86
2021/05/27 17:35:30;;;;;;;1.03;0.87;;;;;;;;;;5049068;28;20216;-84
2021/05/27 17:38:39;;;;;;;1.60;1.20;;;;;;;;;;5064123;28;20176;-85
2021/05/27 17:41:43;;;;;;;1.37;1.00;;;;;;;;;;5063338;28;20718;-84
2021/05/27 17:44:51;;;;;;;9.60;1.13;;;;;;;;;;5058879;28;20188;-84
2021/05/27 17:47:57;;;;;;;1.40;0.80;;;;;;;;;;5049826;28;20176;-84
2021/05/27 17:51:02;;;;;;;1.50;0.80;;;;;;;;;;5062599;28;20212;-84
2021/05/27 17:54:07;;;;;;;1.97;0.93;;;;;;;;;;5050847;28;20196;-84
2021/05/27 17:57:12;;;;;;;1.00;0.90;;;;;;;;;;5059323;28;20220;-83
2021/05/27 18:00:20;;;;;;;1.47;0.90;;;;;;;;;;5050506;28;20531;-84
2021/05/27 18:03:25;;;;;;;2.93;1.00;;;;;;;;;;5060298;28;20185;-86
2021/05/27 18:06:30;;;;;;;3.63;0.93;;;;;;;;;;5042515;28;20216;-84
2021/05/27 18:09:34;;;;;;;1.67;0.93;;;;;;;;;;5043154;28;20180;-85
2021/05/27 18:12:39;;;;;;;1.93;0.80;;;;;;;;;;5048364;28;20188;-83
2021/05/27 18:15:45;;;;;;;1.73;0.73;;;;;;;;;;5072122;28;20227;-83
2021/05/27 18:18:49;;;;;;;1.03;0.90;;;;;;;;;;5047739;28;20180;-82
2021/05/27 18:21:53;;;;;;;1.27;0.80;;;;;;;;;;5047032;28;20180;-84
2021/05/27 18:24:58;;;;;;;1.07;0.70;;;;;;;;;;5048956;28;20188;-83
2021/05/27 18:28:06;;;;;;;1.10;0.73;;;;;;;;;;5048708;28;20204;-83
2021/05/27 18:31:10;;;;;;;2.63;0.80;;;;;;;;;;5057733;28;20204;-83
2021/05/27 18:34:15;;;;;;;1.97;1.20;;;;;;;;;;5045538;28;20219;-84
2021/05/27 18:37:20;;;;;;;2.50;0.90;;;;;;;;;;5057072;28;20196;-82
2021/05/27 18:40:25;;;;;;;2.73;1.33;;;;;;;;;;5064027;28;20192;-83
2021/05/27 18:43:31;;;;;;;3.43;1.30;;;;;;;;;;5049240;28;20185;-82
2021/05/27 18:46:36;;;;;;;1.33;0.97;;;;;;;;;;5057196;28;20215;-84
2021/05/27 18:49:40;;;;;;;1.30;0.90;;;;;;;;;;5054967;28;20196;-83
2021/05/27 18:52:45;;;;;;;1.40;0.90;;;;;;;;;;5066346;28;20631;-83